createdAt,value
2022-11-17T00:02:17.002Z,10.25
2022-11-17T00:04:44.495Z,9.65
2022-11-17T00:07:11.057Z,11.03
2022-11-17T00:09:38.990Z,11.23
2022-11-17T00:12:05.997Z,12.95
2022-11-17T00:14:33.390Z,11.25
2022-11-17T00:16:59.936Z,12.88
2022-11-17T00:19:26.456Z,12.50
2022-11-17T00:21:53.201Z,11.88
2022-11-17T00:24:19.707Z,12.70
2022-11-17T00:26:47.604Z,12.68
2022-11-17T00:29:14.124Z,12.75
2022-11-17T00:31:40.621Z,12.43
2022-11-17T00:34:07.872Z,13.10
2022-11-17T00:36:37.454Z,13.18
2022-11-17T00:39:04.030Z,14.32
2022-11-17T00:41:30.638Z,15.00
2022-11-17T00:43:58.611Z,13.33
2022-11-17T00:46:25.297Z,13.88
2022-11-17T00:48:51.858Z,12.95
2022-11-17T00:51:18.767Z,13.13
2022-11-17T00:53:45.319Z,16.50
2022-11-17T00:56:12.019Z,12.60
2022-11-17T00:58:38.554Z,12.43
2022-11-17T01:01:06.717Z,12.75
2022-11-17T01:03:35.033Z,12.43
2022-11-17T01:06:06.726Z,12.38
2022-11-17T01:08:33.437Z,12.13
2022-11-17T01:11:11.385Z,13.10
2022-11-17T01:13:39.441Z,10.65
2022-11-17T01:16:09.077Z,12.15
2022-11-17T01:18:36.341Z,13.88
2022-11-17T01:21:05.029Z,11.37
2022-11-17T01:23:32.682Z,12.15
2022-11-17T01:26:07.550Z,11.88
2022-11-17T01:28:34.843Z,11.85
2022-11-17T01:31:03.504Z,13.20
2022-11-17T01:33:31.469Z,12.00
2022-11-17T01:36:01.043Z,12.52
2022-11-17T01:38:27.612Z,12.77
2022-11-17T01:40:54.261Z,12.70
2022-11-17T01:43:36.843Z,13.68
2022-11-17T01:46:04.408Z,11.67
2022-11-17T01:48:32.338Z,12.18
2022-11-17T01:50:59.090Z,12.63
2022-11-17T01:53:26.114Z,12.05
2022-11-17T01:55:56.136Z,11.77
2022-11-17T01:58:28.047Z,12.70
2022-11-17T02:00:55.497Z,13.55
2022-11-17T02:03:24.111Z,11.85
2022-11-17T02:05:56.230Z,12.90
2022-11-17T02:08:27.688Z,13.45
2022-11-17T02:10:54.823Z,13.30
2022-11-17T02:13:22.546Z,14.10
2022-11-17T02:15:49.199Z,13.00
2022-11-17T02:18:17.495Z,12.32
2022-11-17T02:21:06.304Z,12.63
2022-11-17T02:24:03.650Z,13.07
2022-11-17T02:27:08.745Z,12.63
2022-11-17T02:29:41.951Z,11.30
2022-11-17T02:32:16.304Z,13.23
2022-11-17T02:34:46.656Z,14.85
2022-11-17T02:37:22.785Z,13.40
2022-11-17T02:39:55.970Z,13.27
2022-11-17T02:42:27.457Z,13.02
2022-11-17T02:44:58.400Z,12.70
2022-11-17T02:47:28.718Z,13.07
2022-11-17T02:49:59.182Z,13.80
2022-11-17T02:52:27.654Z,12.40
2022-11-17T02:54:59.337Z,12.57
2022-11-17T02:57:29.704Z,11.45
2022-11-17T03:00:00.553Z,13.23
2022-11-17T03:02:42.520Z,12.07
2022-11-17T03:05:16.541Z,11.98
2022-11-17T03:07:58.440Z,11.85
2022-11-17T03:10:35.368Z,11.40
2022-11-17T03:13:09.602Z,12.93
2022-11-17T03:15:45.723Z,13.57
2022-11-17T03:18:20.188Z,12.13
2022-11-17T03:20:56.956Z,12.63
2022-11-17T03:23:31.576Z,14.10
2022-11-17T03:25:59.584Z,11.65
2022-11-17T03:28:30.203Z,13.87
2022-11-17T03:31:01.092Z,12.57
2022-11-17T03:33:28.961Z,13.70
2022-11-17T03:36:00.896Z,13.10
2022-11-17T03:38:32.103Z,11.50
2022-11-17T03:41:02.582Z,12.10
2022-11-17T03:43:30.708Z,12.63
2022-11-17T03:46:04.414Z,13.18
2022-11-17T03:48:36.699Z,12.73
2022-11-17T03:51:06.691Z,12.15
2022-11-17T03:53:34.893Z,11.77
2022-11-17T03:56:09.067Z,12.85
2022-11-17T03:58:42.754Z,12.75
2022-11-17T04:01:11.411Z,12.50
2022-11-17T04:03:38.282Z,14.88
2022-11-17T04:06:05.209Z,13.70
2022-11-17T04:08:31.790Z,11.73
2022-11-17T04:10:58.344Z,12.55
2022-11-17T04:13:24.912Z,12.80
2022-11-17T04:15:51.575Z,12.57
2022-11-17T04:18:19.826Z,13.53
2022-11-17T04:20:49.964Z,12.65
2022-11-17T04:23:16.778Z,13.90
2022-11-17T04:25:45.299Z,12.95
2022-11-17T04:28:11.776Z,13.30
2022-11-17T04:30:38.422Z,14.67
2022-11-17T04:33:04.894Z,14.18
2022-11-17T04:35:32.792Z,14.25
2022-11-17T04:37:59.293Z,13.27
2022-11-17T04:40:25.819Z,12.68
2022-11-17T04:42:52.446Z,13.20
2022-11-17T04:45:18.936Z,14.55
2022-11-17T04:47:45.442Z,13.50
2022-11-17T04:50:11.980Z,12.63
2022-11-17T04:52:39.975Z,12.63
2022-11-17T04:55:07.203Z,12.60
2022-11-17T04:57:33.853Z,12.80
2022-11-17T05:00:00.497Z,11.88
2022-11-17T05:02:27.072Z,14.15
2022-11-17T05:04:53.585Z,12.55
2022-11-17T05:07:20.162Z,11.43
2022-11-17T05:09:48.063Z,10.82
2022-11-17T05:12:14.562Z,11.25
2022-11-17T05:14:41.106Z,9.98
2022-11-17T05:17:09.806Z,11.85
2022-11-17T05:19:39.048Z,10.87
2022-11-17T05:22:06.843Z,9.80
2022-11-17T05:24:33.349Z,11.23
2022-11-17T05:27:01.395Z,9.88
2022-11-17T05:29:27.901Z,9.48
2022-11-17T05:31:54.567Z,10.00
2022-11-17T05:34:21.063Z,10.80
2022-11-17T05:36:48.178Z,9.98
2022-11-17T05:39:14.670Z,11.30
2022-11-17T05:41:41.358Z,11.73
2022-11-17T05:44:09.273Z,9.93
2022-11-17T05:46:35.795Z,11.68
2022-11-17T05:49:03.559Z,12.18
2022-11-17T05:51:30.103Z,10.85
2022-11-17T05:53:56.649Z,12.07
2022-11-17T05:56:38.503Z,11.80
2022-11-17T05:59:19.366Z,11.15
2022-11-17T06:01:54.757Z,11.98
2022-11-17T06:04:21.646Z,11.25
2022-11-17T06:06:49.094Z,13.48
2022-11-17T06:09:15.935Z,11.80
2022-11-17T06:11:42.577Z,13.35
2022-11-17T06:14:09.298Z,13.18
2022-11-17T06:16:43.848Z,10.57
2022-11-17T06:19:16.813Z,8.80
2022-11-17T06:22:10.125Z,10.97
2022-11-17T06:24:31.535Z,9.50
2022-11-17T06:26:58.067Z,9.80
2022-11-17T06:29:25.119Z,13.10
2022-11-17T06:31:53.152Z,10.38
2022-11-17T06:34:19.806Z,9.90
2022-11-17T06:36:46.454Z,12.45
2022-11-17T06:39:13.099Z,10.15
2022-11-17T06:41:39.595Z,10.55
2022-11-17T06:44:06.267Z,11.15
2022-11-17T06:46:32.974Z,10.77
2022-11-17T06:49:00.820Z,12.05
2022-11-17T06:51:27.361Z,9.50
2022-11-17T06:53:53.950Z,9.82
2022-11-17T06:56:20.607Z,8.82
2022-11-17T06:58:47.177Z,9.17
2022-11-17T07:01:15.221Z,11.27
2022-11-17T07:03:42.828Z,11.90
2022-11-17T07:06:11.817Z,8.50
2022-11-17T07:08:39.103Z,9.82
2022-11-17T07:11:07.621Z,8.67
2022-11-17T07:13:34.908Z,8.48
2022-11-17T07:16:05.795Z,7.57
2022-11-17T07:18:32.899Z,7.18
2022-11-17T07:21:03.141Z,8.40
2022-11-17T07:23:31.924Z,9.77
2022-11-17T07:25:58.571Z,8.25
2022-11-17T07:28:25.315Z,14.82
2022-11-17T07:30:52.491Z,9.48
2022-11-17T07:33:19.216Z,8.38
2022-11-17T07:35:45.921Z,8.13
2022-11-17T07:38:12.871Z,8.60
2022-11-17T07:40:41.421Z,7.60
2022-11-17T07:43:08.011Z,7.80
2022-11-17T07:45:35.420Z,7.78
2022-11-17T07:48:03.673Z,8.73
2022-11-17T07:50:30.723Z,7.40
2022-11-17T07:52:58.052Z,8.13
2022-11-17T07:55:25.855Z,8.00
2022-11-17T07:57:58.657Z,7.53
2022-11-17T08:00:26.212Z,8.33
2022-11-17T08:02:52.928Z,8.10
2022-11-17T08:05:19.980Z,7.85
2022-11-17T08:07:54.131Z,8.00
2022-11-17T08:10:21.252Z,7.80
2022-11-17T08:12:50.935Z,8.90
2022-11-17T08:15:19.021Z,6.75
2022-11-17T08:17:45.783Z,7.28
2022-11-17T08:20:12.552Z,7.60
2022-11-17T08:22:39.172Z,6.10
2022-11-17T08:25:06.469Z,6.90
2022-11-17T08:27:33.213Z,6.55
2022-11-17T08:29:59.823Z,6.28
2022-11-17T08:32:27.710Z,6.97
2022-11-17T08:34:54.903Z,8.70
2022-11-17T08:37:21.461Z,6.93
2022-11-17T08:39:48.094Z,6.28
2022-11-17T08:42:16.034Z,7.28
2022-11-17T08:44:42.704Z,8.40
2022-11-17T08:47:09.260Z,7.57
2022-11-17T08:49:37.204Z,8.03
2022-11-17T08:52:04.044Z,7.55
2022-11-17T08:54:30.605Z,8.07
2022-11-17T08:56:57.758Z,7.15
2022-11-17T08:59:24.907Z,7.53
2022-11-17T09:01:51.499Z,8.27
2022-11-17T09:04:18.518Z,6.68
2022-11-17T09:06:46.430Z,8.25
2022-11-17T09:09:13.170Z,7.10
2022-11-17T09:11:39.822Z,7.03
2022-11-17T09:14:07.250Z,6.17
2022-11-17T09:16:34.492Z,6.55
2022-11-17T09:19:01.057Z,7.20
2022-11-17T09:21:27.671Z,5.97
2022-11-17T09:23:55.972Z,5.80
2022-11-17T09:26:22.578Z,6.30
2022-11-17T09:28:49.136Z,5.45
2022-11-17T09:31:17.854Z,6.45
2022-11-17T09:33:44.810Z,5.40
2022-11-17T09:36:12.848Z,5.50
2022-11-17T09:38:40.389Z,4.80
2022-11-17T09:41:23.966Z,5.75
2022-11-17T09:43:59.393Z,4.90
2022-11-17T09:46:34.160Z,5.45
2022-11-17T09:49:07.842Z,6.05
2022-11-17T09:51:38.214Z,5.63
2022-11-17T09:54:13.312Z,6.05
2022-11-17T09:56:41.580Z,7.75
2022-11-17T09:59:12.701Z,5.78
2022-11-17T10:01:39.323Z,8.23
2022-11-17T10:04:11.257Z,6.37
2022-11-17T10:06:37.951Z,6.68
2022-11-17T10:09:11.667Z,6.80
2022-11-17T10:11:42.162Z,6.97
2022-11-17T10:14:14.316Z,7.97
2022-11-17T10:16:43.339Z,7.70
2022-11-17T10:19:17.620Z,6.43
2022-11-17T10:21:45.700Z,6.93
2022-11-17T10:24:33.437Z,6.68
2022-11-17T10:27:01.056Z,6.55
2022-11-17T10:29:29.241Z,7.70
2022-11-17T10:31:55.811Z,6.60
2022-11-17T10:34:40.647Z,6.32
2022-11-17T10:37:24.708Z,5.85
2022-11-17T10:40:07.098Z,8.15
2022-11-17T10:42:33.706Z,11.83
2022-11-17T10:45:02.731Z,13.85
2022-11-17T10:47:38.485Z,10.35
2022-11-17T10:50:14.441Z,7.70
2022-11-17T10:52:41.025Z,10.23
2022-11-17T10:55:19.346Z,10.80
2022-11-17T10:57:49.892Z,7.45
2022-11-17T11:00:27.467Z,7.45
2022-11-17T11:03:14.985Z,7.85
2022-11-17T11:05:55.618Z,8.77
2022-11-17T11:08:24.383Z,9.03
2022-11-17T11:10:53.351Z,10.18
2022-11-17T11:13:27.541Z,7.65
2022-11-17T11:15:55.563Z,7.45
2022-11-17T11:18:22.323Z,6.95
2022-11-17T11:20:58.880Z,7.47
2022-11-17T11:23:38.865Z,8.50
2022-11-17T11:26:17.053Z,7.18
2022-11-17T11:28:56.792Z,7.07
2022-11-17T11:31:32.659Z,8.30
2022-11-17T11:34:09.413Z,6.00
2022-11-17T11:36:39.873Z,6.88
2022-11-17T11:39:19.456Z,6.40
2022-11-17T11:42:07.463Z,7.05
2022-11-17T11:45:04.270Z,8.10
2022-11-17T11:47:49.344Z,5.97
2022-11-17T11:50:20.808Z,6.07
2022-11-17T11:52:51.893Z,7.28
2022-11-17T11:55:22.066Z,12.82
2022-11-17T11:57:55.332Z,8.50
2022-11-17T12:00:22.399Z,5.93
2022-11-17T12:02:55.599Z,6.10
2022-11-17T12:05:29.157Z,6.32
2022-11-17T12:08:10.332Z,5.38
2022-11-17T12:10:45.478Z,5.13
2022-11-17T12:13:14.607Z,5.77
2022-11-17T12:15:41.291Z,5.00
2022-11-17T12:18:14.283Z,6.75
2022-11-17T12:20:52.393Z,4.68
2022-11-17T12:23:26.430Z,4.28
2022-11-17T12:25:55.781Z,4.20
2022-11-17T12:28:32.669Z,5.00
2022-11-17T12:31:05.145Z,5.03
2022-11-17T12:34:28.835Z,5.95
2022-11-17T12:37:19.935Z,3.65
2022-11-17T12:39:55.150Z,5.57
2022-11-17T12:42:22.219Z,3.67
2022-11-17T12:44:55.063Z,4.45
2022-11-17T12:47:23.557Z,4.57
2022-11-17T12:50:14.307Z,3.65
2022-11-17T12:52:55.837Z,3.17
2022-11-17T12:55:30.279Z,3.35
2022-11-17T12:58:10.543Z,5.10
2022-11-17T13:00:44.447Z,4.30
2022-11-17T13:03:16.281Z,3.45
2022-11-17T13:05:42.842Z,6.00
2022-11-17T13:08:20.002Z,7.35
2022-11-17T13:10:47.150Z,5.28
2022-11-17T13:13:17.387Z,4.53
2022-11-17T13:15:44.540Z,5.38
2022-11-17T13:18:18.030Z,4.37
2022-11-17T13:20:46.944Z,5.03
2022-11-17T13:23:20.580Z,4.32
2022-11-17T13:25:47.564Z,2.95
2022-11-17T13:28:27.898Z,3.95
2022-11-17T13:30:54.510Z,4.47
2022-11-17T13:33:23.743Z,3.15
2022-11-17T13:36:07.852Z,3.05
2022-11-17T13:38:35.759Z,2.53
2022-11-17T13:41:03.699Z,2.05
2022-11-17T13:43:37.088Z,2.13
2022-11-17T13:46:03.693Z,3.08
2022-11-17T13:48:30.985Z,9.95
2022-11-17T13:51:15.688Z,17.73
2022-11-17T13:53:45.435Z,10.02
2022-11-17T13:56:22.440Z,7.87
2022-11-17T13:58:50.703Z,6.82
2022-11-17T14:01:21.603Z,6.50
2022-11-17T14:03:48.326Z,6.68
2022-11-17T14:06:14.915Z,7.68
2022-11-17T14:09:01.108Z,6.30
2022-11-17T14:11:27.762Z,3.75
2022-11-17T14:13:55.548Z,3.03
2022-11-17T14:16:25.747Z,1.95
2022-11-17T14:18:58.309Z,2.50
2022-11-17T14:21:25.228Z,3.60
2022-11-17T14:24:02.477Z,3.58
2022-11-17T14:26:29.074Z,5.25
2022-11-17T14:28:55.677Z,3.13
2022-11-17T14:31:22.209Z,3.15
2022-11-17T14:33:49.273Z,5.80
2022-11-17T14:36:17.168Z,4.97
2022-11-17T14:38:44.691Z,4.38
2022-11-17T14:41:14.171Z,3.33
2022-11-17T14:43:40.731Z,4.13
2022-11-17T14:46:11.874Z,5.00
2022-11-17T14:48:38.389Z,5.60
2022-11-17T14:51:05.038Z,6.05
2022-11-17T14:53:31.583Z,6.10
2022-11-17T14:55:58.166Z,3.92
2022-11-17T14:58:26.075Z,3.63
2022-11-17T15:00:52.596Z,3.72
2022-11-17T15:03:19.235Z,4.45
2022-11-17T15:05:45.894Z,4.13
2022-11-17T15:08:12.991Z,4.70
2022-11-17T15:10:43.174Z,4.07
2022-11-17T15:13:11.265Z,4.70
2022-11-17T15:15:39.191Z,7.60
2022-11-17T15:18:05.894Z,7.75
2022-11-17T15:20:32.456Z,7.30
2022-11-17T15:23:03.059Z,6.70
2022-11-17T15:25:30.225Z,7.57
2022-11-17T15:27:56.976Z,5.75
2022-11-17T15:30:23.658Z,6.05
2022-11-17T15:32:51.531Z,7.32
2022-11-17T15:35:18.185Z,5.77
2022-11-17T15:37:44.812Z,6.35
2022-11-17T15:40:16.423Z,7.85
2022-11-17T15:42:45.697Z,8.50
2022-11-17T15:45:12.289Z,5.25
2022-11-17T15:47:38.823Z,7.03
2022-11-17T15:50:08.322Z,8.07
2022-11-17T15:53:02.153Z,7.38
2022-11-17T15:55:21.609Z,8.73
2022-11-17T15:57:48.146Z,8.48
2022-11-17T16:00:16.170Z,7.90
2022-11-17T16:02:42.793Z,6.70
2022-11-17T16:05:10.703Z,7.32
2022-11-17T16:07:37.424Z,7.82
2022-11-17T16:10:04.664Z,10.13
2022-11-17T16:12:31.257Z,7.20
2022-11-17T16:14:58.144Z,10.75
2022-11-17T16:17:24.767Z,10.50
2022-11-17T16:19:51.350Z,8.60
2022-11-17T16:22:19.317Z,9.00
2022-11-17T16:24:45.849Z,9.77
2022-11-17T16:27:13.702Z,8.35
2022-11-17T16:29:40.365Z,8.25
2022-11-17T16:32:06.925Z,7.95
2022-11-17T16:34:33.584Z,7.65
2022-11-17T16:37:00.176Z,9.73
2022-11-17T16:39:28.133Z,8.40
2022-11-17T16:41:54.684Z,7.63
2022-11-17T16:44:21.352Z,11.77
2022-11-17T16:46:48.718Z,11.70
2022-11-17T16:49:17.501Z,12.17
2022-11-17T16:51:47.402Z,11.85
2022-11-17T16:54:14.473Z,12.13
2022-11-17T16:56:42.434Z,10.45
2022-11-17T16:59:09.963Z,13.15
2022-11-17T17:01:36.941Z,11.03
2022-11-17T17:04:05.765Z,12.57
2022-11-17T17:06:33.262Z,11.52
2022-11-17T17:09:01.881Z,13.73
2022-11-17T17:11:28.843Z,10.60
2022-11-17T17:13:56.775Z,11.53
2022-11-17T17:16:23.843Z,20.20
2022-11-17T17:18:54.859Z,17.77
2022-11-17T17:21:21.559Z,14.52
2022-11-17T17:23:48.203Z,11.70
2022-11-17T17:26:16.479Z,12.67
2022-11-17T17:28:44.706Z,10.20
2022-11-17T17:31:19.602Z,13.68
2022-11-17T17:33:48.397Z,11.48
2022-11-17T17:36:16.586Z,11.68
2022-11-17T17:38:43.278Z,10.27
2022-11-17T17:41:11.121Z,11.30
2022-11-17T17:43:38.624Z,11.10
2022-11-17T17:46:08.406Z,12.32
2022-11-17T17:48:40.035Z,14.50
2022-11-17T17:51:09.240Z,12.50
2022-11-17T17:53:36.251Z,12.65
2022-11-17T17:56:05.448Z,12.40
2022-11-17T17:58:32.627Z,10.70
2022-11-17T18:01:07.944Z,12.13
2022-11-17T18:03:34.568Z,9.80
2022-11-17T18:06:02.607Z,14.57
2022-11-17T18:08:29.186Z,14.52
2022-11-17T18:10:59.498Z,11.65
2022-11-17T18:13:30.084Z,11.38
2022-11-17T18:15:57.106Z,9.87
2022-11-17T18:18:23.714Z,8.70
2022-11-17T18:20:58.479Z,10.70
2022-11-17T18:23:27.709Z,8.18
2022-11-17T18:25:54.330Z,9.48
2022-11-17T18:28:20.940Z,8.00
2022-11-17T18:30:47.591Z,7.85
2022-11-17T18:33:14.120Z,5.78
2022-11-17T18:35:40.669Z,7.55
2022-11-17T18:38:07.244Z,10.82
2022-11-17T18:40:35.201Z,5.47
2022-11-17T18:43:01.773Z,8.10
2022-11-17T18:45:28.388Z,7.15
2022-11-17T18:47:54.931Z,7.07
2022-11-17T18:50:21.444Z,8.85
2022-11-17T18:52:48.015Z,7.50
2022-11-17T18:55:14.590Z,9.32
2022-11-17T18:57:45.053Z,7.82
2022-11-17T19:00:13.127Z,7.78
2022-11-17T19:02:39.722Z,8.63
2022-11-17T19:05:07.139Z,9.00
2022-11-17T19:07:33.969Z,9.23
2022-11-17T19:10:00.640Z,8.40
2022-11-17T19:12:27.221Z,11.73
2022-11-17T19:14:55.161Z,8.63
2022-11-17T19:17:21.767Z,7.67
2022-11-17T19:19:48.288Z,10.98
2022-11-17T19:22:14.840Z,16.60
2022-11-17T19:24:41.431Z,21.50
2022-11-17T19:27:08.001Z,22.63
2022-11-17T19:29:34.721Z,21.47
2022-11-17T19:32:02.680Z,17.88
2022-11-17T19:34:29.214Z,15.18
2022-11-17T19:36:55.883Z,15.90
2022-11-17T19:39:22.452Z,18.13
2022-11-17T19:41:49.010Z,17.33
2022-11-17T19:44:15.783Z,17.00
2022-11-17T19:46:42.352Z,16.73
2022-11-17T19:49:11.753Z,15.23
2022-11-17T19:51:38.362Z,13.35
2022-11-17T19:54:06.759Z,13.77
2022-11-17T19:56:33.695Z,11.93
2022-11-17T19:59:00.357Z,12.68
2022-11-17T20:01:28.474Z,12.57
2022-11-17T20:03:55.737Z,16.25
2022-11-17T20:06:25.992Z,13.73
2022-11-17T20:08:53.316Z,11.27
2022-11-17T20:11:21.399Z,10.40
2022-11-17T20:13:48.859Z,7.47
2022-11-17T20:16:17.174Z,7.57
2022-11-17T20:18:45.164Z,12.60
2022-11-17T20:21:12.100Z,16.00
2022-11-17T20:23:40.396Z,11.40
2022-11-17T20:26:10.719Z,6.93
2022-11-17T20:28:38.083Z,8.07
2022-11-17T20:31:08.464Z,7.27
2022-11-17T20:33:35.018Z,6.75
2022-11-17T20:36:02.337Z,7.50
2022-11-17T20:38:28.935Z,11.18
2022-11-17T20:40:58.378Z,10.60
2022-11-17T20:43:25.440Z,9.33
2022-11-17T20:45:52.077Z,9.80
2022-11-17T20:48:19.055Z,9.18
2022-11-17T20:50:54.984Z,12.18
2022-11-17T20:53:21.775Z,14.00
2022-11-17T20:55:48.349Z,13.27
2022-11-17T20:58:16.449Z,11.70
2022-11-17T21:00:43.182Z,11.05
2022-11-17T21:03:09.780Z,11.20
2022-11-17T21:05:36.338Z,14.35
2022-11-17T21:08:02.922Z,9.20
2022-11-17T21:10:29.474Z,8.55
2022-11-17T21:12:57.144Z,7.45
2022-11-17T21:15:25.113Z,9.20
2022-11-17T21:17:51.920Z,7.30
2022-11-17T21:20:18.455Z,9.13
2022-11-17T21:22:45.090Z,9.80
2022-11-17T21:25:11.683Z,12.13
2022-11-17T21:27:38.260Z,8.15
2022-11-17T21:30:05.822Z,9.23
2022-11-17T21:32:33.687Z,9.43
2022-11-17T21:35:00.347Z,7.60
2022-11-17T21:37:26.884Z,9.40
2022-11-17T21:39:53.493Z,16.27
2022-11-17T21:42:20.256Z,11.77
2022-11-17T21:44:46.805Z,8.50
2022-11-17T21:47:13.337Z,10.88
2022-11-17T21:49:41.418Z,10.27
2022-11-17T21:52:07.980Z,8.18
2022-11-17T21:54:34.616Z,7.72
2022-11-17T21:57:01.261Z,10.37
2022-11-17T21:59:27.793Z,7.78
2022-11-17T22:01:54.728Z,9.60
2022-11-17T22:04:21.323Z,7.50
2022-11-17T22:06:49.293Z,7.07
2022-11-17T22:09:16.311Z,7.00
2022-11-17T22:11:43.080Z,10.15
2022-11-17T22:14:11.520Z,13.73
2022-11-17T22:16:39.165Z,17.13
2022-11-17T22:19:06.629Z,16.20
2022-11-17T22:21:33.612Z,14.73
2022-11-17T22:24:01.561Z,12.95
2022-11-17T22:26:28.166Z,14.40
2022-11-17T22:28:55.980Z,13.68
2022-11-17T22:31:23.038Z,15.18
2022-11-17T22:33:50.353Z,15.83
2022-11-17T22:36:17.766Z,13.80
2022-11-17T22:38:44.999Z,13.02
2022-11-17T22:41:13.974Z,12.75
2022-11-17T22:43:40.757Z,11.23
2022-11-17T22:46:10.528Z,10.67
2022-11-17T22:48:38.124Z,9.75
2022-11-17T22:51:05.575Z,12.20
2022-11-17T22:53:32.898Z,8.52
2022-11-17T22:56:02.042Z,10.60
2022-11-17T22:58:30.242Z,9.07
2022-11-17T23:00:57.038Z,10.70
2022-11-17T23:03:23.734Z,8.07
2022-11-17T23:05:50.462Z,9.18
2022-11-17T23:08:17.376Z,9.20
2022-11-17T23:10:43.911Z,9.20
2022-11-17T23:13:10.532Z,9.45
2022-11-17T23:15:39.460Z,8.80
2022-11-17T23:18:06.078Z,8.02
2022-11-17T23:20:32.682Z,9.98
2022-11-17T23:22:59.286Z,10.27
2022-11-17T23:25:25.859Z,12.43
2022-11-17T23:27:52.610Z,8.88
2022-11-17T23:30:19.210Z,10.25
2022-11-17T23:32:47.568Z,7.30
2022-11-17T23:35:14.272Z,9.90
2022-11-17T23:37:40.846Z,9.65
2022-11-17T23:40:08.900Z,8.77
2022-11-17T23:42:40.140Z,9.70
2022-11-17T23:45:10.595Z,10.30
2022-11-17T23:47:37.276Z,10.07
2022-11-17T23:50:05.927Z,7.18
2022-11-17T23:52:32.521Z,7.43
2022-11-17T23:54:59.048Z,9.77
2022-11-17T23:57:25.551Z,10.82
2022-11-17T23:59:52.081Z,12.97
